This is the latest recevied weather packets stored in our database for station/object HS1WDC-1. If no packets are shown the sender has not sent any weather packets the latest 10 day(s).
| Time | Temp. | Humidity | Pressure | Rain* | Wind** | Luminosity | Snow |
|---|---|---|---|---|---|---|---|
| 1777697747 | 39.44° C | 39% | 1008 hPa | - | - | 0 W/m² | - |
| 1777696823 | 39.44° C | 41% | 1008 hPa | - | - | 0 W/m² | - |
| 1777695898 | 38.89° C | 44% | 1008 hPa | - | - | 0 W/m² | - |
| 1777694974 | 38.33° C | 45% | 1009 hPa | - | - | 0 W/m² | - |
| 1777694050 | 38.33° C | 46% | 1009 hPa | - | - | 0 W/m² | - |
| 1777693126 | 37.78° C | 46% | 1009 hPa | - | - | 0 W/m² | - |
| 1777692201 | 37.78° C | 49% | 1009 hPa | - | - | 0 W/m² | - |
| 1777691277 | 37.78° C | 49% | 1009 hPa | - | - | 0 W/m² | - |
| 1777690352 | 37.22° C | 51% | 1009 hPa | - | - | 0 W/m² | - |
| 1777689428 | 36.67° C | 52% | 1009 hPa | - | - | 0 W/m² | - |
| 1777688504 | 36.67° C | 53% | 1009 hPa | - | - | 0 W/m² | - |
| 1777687579 | 36.11° C | 53% | 1009 hPa | - | - | 0 W/m² | - |
| 1777686655 | 36.11° C | 53% | 1009 hPa | - | - | 0 W/m² | - |
| 1777685730 | 35.56° C | 53% | 1009 hPa | - | - | 0 W/m² | - |
| 1777684806 | 34.44° C | 55% | 1009 hPa | - | - | 0 W/m² | - |
| 1777683882 | 34.44° C | 55% | 1009 hPa | - | - | 0 W/m² | - |
| 1777682958 | 34.44° C | 56% | 1009 hPa | - | - | 0 W/m² | - |
| 1777682033 | 33.33° C | 59% | 1009 hPa | - | - | 0 W/m² | - |
| 1777681110 | 33.33° C | 59% | 1009 hPa | - | - | 0 W/m² | - |
| 1777680185 | 32.78° C | 61% | 1009 hPa | - | - | 0 W/m² | - |
| 1777679261 | 32.22° C | 62% | 1008 hPa | - | - | 0 W/m² | - |
| 1777678336 | 32.22° C | 61% | 1008 hPa | - | - | 0 W/m² | - |
| 1777677412 | 32.78° C | 60% | 1008 hPa | - | - | 0 W/m² | - |
| 1777676488 | 32.22° C | 62% | 1008 hPa | - | - | 0 W/m² | - |
| 1777675563 | 32.78° C | 60% | 1008 hPa | - | - | 0 W/m² | - |
* Rain since midnight (hover to see other rain measurements)
** Current wind speed in m/s (hover to see current wind gust speed)